Time;durP1;ratioP1;P1;durP2;ratioP2;P2;SDS_P1;SDS_P2;PMS_P1;PMS_P2;Temp;Humidity;BMP_temperature;BMP_pressure;BME280_temperature;BME280_humidity;BME280_pressure;Samples;Min_cycle;Max_cycle;Signal;HPM_P1;HPM_P2
2022/03/01 00:00:24;;;;;;;27.42;11.30;;;;;;;;;;4942268;28;20035;-83
2022/03/01 00:02:50;;;;;;;28.10;11.32;;;;;;;;;;4947659;28;20473;-82
2022/03/01 00:05:16;;;;;;;26.17;10.43;;;;;;;;;;4942474;28;20483;-82
2022/03/01 00:07:42;;;;;;;26.60;11.32;;;;;;;;;;4958321;28;20135;-83
2022/03/01 00:10:09;;;;;;;26.83;11.02;;;;;;;;;;4941995;28;20118;-82
2022/03/01 00:12:35;;;;;;;27.65;12.15;;;;;;;;;;4942022;28;20039;-83
2022/03/01 00:15:01;;;;;;;25.35;10.90;;;;;;;;;;4956878;28;20436;-83
2022/03/01 00:17:27;;;;;;;22.90;10.50;;;;;;;;;;4940669;28;20059;-82
2022/03/01 00:19:53;;;;;;;22.52;10.57;;;;;;;;;;4942744;28;20027;-82
2022/03/01 00:22:26;;;;;;;23.63;10.40;;;;;;;;;;4945897;28;20046;-82
2022/03/01 00:24:52;;;;;;;27.00;11.15;;;;;;;;;;4956619;28;20102;-82
2022/03/01 00:27:18;;;;;;;23.33;10.77;;;;;;;;;;4938330;28;20041;-83
2022/03/01 00:29:50;;;;;;;26.50;11.50;;;;;;;;;;4941010;28;20039;-82
2022/03/01 00:32:17;;;;;;;23.33;10.80;;;;;;;;;;4953379;28;20118;-82
2022/03/01 00:34:43;;;;;;;28.33;10.50;;;;;;;;;;4949459;28;20940;-82
2022/03/01 00:37:09;;;;;;;23.85;10.73;;;;;;;;;;4946428;28;20049;-82
2022/03/01 00:39:35;;;;;;;32.75;12.80;;;;;;;;;;4942339;28;20027;-83
2022/03/01 00:42:01;;;;;;;22.25;10.18;;;;;;;;;;4942321;28;20035;-82
2022/03/01 00:44:27;;;;;;;23.77;11.05;;;;;;;;;;4937886;28;20036;-83
2022/03/01 00:46:53;;;;;;;22.08;11.00;;;;;;;;;;4943393;28;20507;-82
2022/03/01 00:49:19;;;;;;;21.15;10.80;;;;;;;;;;4937732;28;20034;-83
2022/03/01 00:51:45;;;;;;;28.85;11.13;;;;;;;;;;4943848;28;20047;-83
2022/03/01 00:54:11;;;;;;;27.45;11.25;;;;;;;;;;4945074;28;20401;-82
2022/03/01 00:56:37;;;;;;;29.13;11.05;;;;;;;;;;4943730;28;20031;-83
2022/03/01 00:59:03;;;;;;;23.90;11.30;;;;;;;;;;4949858;28;20047;-82
2022/03/01 01:01:30;;;;;;;27.80;11.60;;;;;;;;;;4942001;28;20043;-83
2022/03/01 01:03:56;;;;;;;27.20;10.70;;;;;;;;;;4954625;28;20023;-82
2022/03/01 01:06:22;;;;;;;22.45;11.00;;;;;;;;;;4944741;28;20114;-82
2022/03/01 01:08:48;;;;;;;28.05;12.52;;;;;;;;;;4949940;28;20046;-82
2022/03/01 01:11:14;;;;;;;26.17;11.23;;;;;;;;;;4941163;28;20043;-82
2022/03/01 01:13:40;;;;;;;24.30;11.50;;;;;;;;;;4944754;28;20031;-82
2022/03/01 01:16:06;;;;;;;25.27;11.70;;;;;;;;;;4938456;28;20551;-82
2022/03/01 01:18:32;;;;;;;28.25;11.77;;;;;;;;;;4939106;28;20035;-83
2022/03/01 01:20:58;;;;;;;25.33;11.63;;;;;;;;;;4954890;28;20499;-82
2022/03/01 01:23:24;;;;;;;26.70;11.32;;;;;;;;;;4948636;28;20382;-83
2022/03/01 01:25:50;;;;;;;28.52;12.00;;;;;;;;;;4954505;28;20109;-82
2022/03/01 01:28:17;;;;;;;24.23;11.93;;;;;;;;;;4939326;28;20043;-82
2022/03/01 01:30:43;;;;;;;27.20;11.32;;;;;;;;;;4956328;28;20055;-82
2022/03/01 01:33:09;;;;;;;23.77;11.15;;;;;;;;;;4942534;28;20031;-82
2022/03/01 01:35:35;;;;;;;24.65;10.82;;;;;;;;;;4952325;28;20036;-82
2022/03/01 01:38:02;;;;;;;28.27;11.80;;;;;;;;;;4958150;28;20049;-83
2022/03/01 01:40:29;;;;;;;31.17;12.25;;;;;;;;;;4939658;28;20027;-83
2022/03/01 01:42:56;;;;;;;29.17;10.00;;;;;;;;;;4942229;28;20066;-83
2022/03/01 01:45:22;;;;;;;26.20;11.20;;;;;;;;;;4936369;28;20073;-82
2022/03/01 01:47:49;;;;;;;26.95;11.68;;;;;;;;;;4941678;28;20089;-82
2022/03/01 01:50:16;;;;;;;30.60;11.43;;;;;;;;;;4941989;28;20078;-82
2022/03/01 01:52:45;;;;;;;25.25;11.05;;;;;;;;;;4947467;28;20292;-82
2022/03/01 01:55:11;;;;;;;27.58;11.48;;;;;;;;;;4941762;28;20031;-82
2022/03/01 01:57:37;;;;;;;25.65;11.73;;;;;;;;;;4943094;28;20079;-82
2022/03/01 02:00:05;;;;;;;30.60;11.27;;;;;;;;;;4953176;28;20058;-82
2022/03/01 02:02:31;;;;;;;27.05;10.00;;;;;;;;;;4943685;28;20519;-82
2022/03/01 02:04:57;;;;;;;28.83;11.55;;;;;;;;;;4938109;28;20436;-82
2022/03/01 02:07:23;;;;;;;28.25;10.95;;;;;;;;;;4938776;28;20031;-82
2022/03/01 02:09:49;;;;;;;26.13;11.18;;;;;;;;;;4945517;28;20035;-82
2022/03/01 02:12:15;;;;;;;26.38;11.68;;;;;;;;;;4945681;29;20054;-83
2022/03/01 02:14:41;;;;;;;25.35;10.93;;;;;;;;;;4962431;28;20042;-82
2022/03/01 02:17:08;;;;;;;26.15;10.95;;;;;;;;;;4943445;28;20032;-82
2022/03/01 02:19:35;;;;;;;27.40;12.13;;;;;;;;;;4947231;28;20770;-82
2022/03/01 02:22:01;;;;;;;30.17;12.75;;;;;;;;;;4953927;28;20717;-82
2022/03/01 02:24:28;;;;;;;29.77;11.60;;;;;;;;;;4942217;28;20023;-82
2022/03/01 02:26:55;;;;;;;26.10;12.07;;;;;;;;;;4942787;29;20038;-82
2022/03/01 02:29:22;;;;;;;22.98;10.63;;;;;;;;;;4946357;28;20050;-83
2022/03/01 02:31:48;;;;;;;26.75;10.90;;;;;;;;;;4943452;28;20126;-83
2022/03/01 02:34:14;;;;;;;28.60;11.27;;;;;;;;;;4946301;28;20074;-83
2022/03/01 02:36:40;;;;;;;24.63;11.35;;;;;;;;;;4959111;28;20038;-82
2022/03/01 02:39:06;;;;;;;24.83;11.65;;;;;;;;;;4948402;28;20028;-82
2022/03/01 02:41:32;;;;;;;30.70;11.85;;;;;;;;;;4963671;28;20110;-83
2022/03/01 02:43:58;;;;;;;29.52;11.40;;;;;;;;;;4944622;28;20027;-82
2022/03/01 02:46:24;;;;;;;29.35;12.07;;;;;;;;;;4943638;28;20031;-82
2022/03/01 02:48:50;;;;;;;25.75;11.48;;;;;;;;;;4953844;28;20082;-83
2022/03/01 02:51:16;;;;;;;28.02;11.57;;;;;;;;;;4955142;28;20058;-82
2022/03/01 02:53:42;;;;;;;27.80;11.35;;;;;;;;;;4943954;28;20444;-82
2022/03/01 02:56:08;;;;;;;27.27;11.43;;;;;;;;;;4949106;28;20027;-82
2022/03/01 02:58:34;;;;;;;22.95;10.18;;;;;;;;;;4944214;28;20028;-82
2022/03/01 03:01:00;;;;;;;24.67;10.85;;;;;;;;;;4945741;28;20548;-82
2022/03/01 03:03:26;;;;;;;29.88;12.18;;;;;;;;;;4957689;28;20039;-83
2022/03/01 03:05:52;;;;;;;24.67;10.95;;;;;;;;;;4948394;28;20293;-82
2022/03/01 03:08:18;;;;;;;24.45;10.90;;;;;;;;;;4956944;28;20031;-82
2022/03/01 03:10:44;;;;;;;27.63;11.48;;;;;;;;;;4944105;28;20134;-82
2022/03/01 03:13:10;;;;;;;30.55;10.88;;;;;;;;;;4942298;28;20400;-82
2022/03/01 03:15:37;;;;;;;30.55;12.40;;;;;;;;;;4958813;28;20039;-82
2022/03/01 03:18:04;;;;;;;31.75;11.68;;;;;;;;;;4940935;28;20460;-82
2022/03/01 03:20:30;;;;;;;30.95;10.90;;;;;;;;;;4957451;28;20023;-82
2022/03/01 03:22:56;;;;;;;30.27;11.70;;;;;;;;;;4949820;28;20110;-82
2022/03/01 03:25:22;;;;;;;28.90;12.48;;;;;;;;;;4944128;29;21874;-82
2022/03/01 03:27:48;;;;;;;28.00;11.40;;;;;;;;;;4946584;28;20657;-83
2022/03/01 03:30:14;;;;;;;22.10;11.20;;;;;;;;;;4946286;28;20051;-82
2022/03/01 03:32:40;;;;;;;27.55;11.18;;;;;;;;;;4943006;28;20539;-82
2022/03/01 03:35:07;;;;;;;29.02;11.50;;;;;;;;;;4957902;28;20035;-82
2022/03/01 03:37:33;;;;;;;28.10;11.52;;;;;;;;;;4941465;28;20082;-82
2022/03/01 03:39:59;;;;;;;25.13;11.18;;;;;;;;;;4947275;28;20661;-82
2022/03/01 03:42:25;;;;;;;30.25;11.43;;;;;;;;;;4946252;28;20086;-82
2022/03/01 03:44:52;;;;;;;24.77;11.45;;;;;;;;;;4944502;28;20023;-82
2022/03/01 03:47:18;;;;;;;28.42;11.52;;;;;;;;;;4943140;28;20039;-82
2022/03/01 03:49:44;;;;;;;24.55;11.18;;;;;;;;;;4943927;28;20035;-82
2022/03/01 03:52:10;;;;;;;26.65;11.90;;;;;;;;;;4943635;28;20027;-83
2022/03/01 03:54:36;;;;;;;28.05;11.57;;;;;;;;;;4945337;28;20476;-83
2022/03/01 03:57:07;;;;;;;32.42;12.02;;;;;;;;;;4947715;28;20027;-82
2022/03/01 03:59:34;;;;;;;32.70;12.25;;;;;;;;;;4956242;28;20035;-82
2022/03/01 04:02:00;;;;;;;28.00;11.00;;;;;;;;;;4948744;28;20459;-82
2022/03/01 04:04:27;;;;;;;28.13;11.55;;;;;;;;;;4959261;28;20039;-82
2022/03/01 04:06:53;;;;;;;27.00;11.77;;;;;;;;;;4957655;28;20027;-82
2022/03/01 04:09:19;;;;;;;30.55;11.55;;;;;;;;;;4945818;28;20065;-82
2022/03/01 04:11:45;;;;;;;31.13;13.02;;;;;;;;;;4945501;28;20968;-82
2022/03/01 04:14:11;;;;;;;21.67;10.60;;;;;;;;;;4946923;28;20126;-82
2022/03/01 04:16:38;;;;;;;26.02;12.45;;;;;;;;;;4938886;28;20031;-82
2022/03/01 04:19:04;;;;;;;27.60;11.35;;;;;;;;;;4954806;28;20028;-82
2022/03/01 04:21:31;;;;;;;26.15;11.43;;;;;;;;;;4942926;28;20506;-83
2022/03/01 04:23:57;;;;;;;34.70;12.60;;;;;;;;;;4960251;28;20070;-83
2022/03/01 04:26:23;;;;;;;23.48;11.43;;;;;;;;;;4943099;28;20381;-82
2022/03/01 04:28:49;;;;;;;25.20;10.82;;;;;;;;;;4946444;28;20526;-82
2022/03/01 04:31:15;;;;;;;30.05;12.40;;;;;;;;;;4939224;28;20051;-82
2022/03/01 04:33:41;;;;;;;33.08;12.27;;;;;;;;;;4946522;28;20039;-83
2022/03/01 04:36:08;;;;;;;28.95;11.43;;;;;;;;;;4942938;28;20098;-82
2022/03/01 04:38:35;;;;;;;26.20;12.32;;;;;;;;;;4960746;28;20047;-82
2022/03/01 04:41:01;;;;;;;25.23;12.20;;;;;;;;;;4957657;28;20038;-82
2022/03/01 04:43:27;;;;;;;30.25;12.65;;;;;;;;;;4962383;28;20067;-82
2022/03/01 04:45:53;;;;;;;29.63;12.57;;;;;;;;;;4942526;28;20447;-82
2022/03/01 04:48:19;;;;;;;26.65;11.23;;;;;;;;;;4948194;28;20035;-82
2022/03/01 04:50:45;;;;;;;24.20;10.68;;;;;;;;;;4952844;28;20036;-82
2022/03/01 04:53:12;;;;;;;28.27;12.77;;;;;;;;;;4943780;28;20098;-82
2022/03/01 04:55:38;;;;;;;30.60;12.25;;;;;;;;;;4945318;28;20031;-82
2022/03/01 04:58:04;;;;;;;34.95;12.23;;;;;;;;;;4942208;28;20122;-82
2022/03/01 05:00:30;;;;;;;33.30;12.43;;;;;;;;;;4946990;28;20174;-82
2022/03/01 05:02:56;;;;;;;28.75;11.60;;;;;;;;;;4957999;28;20031;-82
2022/03/01 05:05:22;;;;;;;23.98;11.75;;;;;;;;;;4943614;28;20031;-82
2022/03/01 05:07:49;;;;;;;24.55;11.27;;;;;;;;;;4942763;28;20035;-82
2022/03/01 05:10:19;;;;;;;29.27;11.82;;;;;;;;;;4945851;28;20106;-82
2022/03/01 05:12:45;;;;;;;21.60;10.23;;;;;;;;;;4957179;28;20408;-82
2022/03/01 05:15:12;;;;;;;29.58;11.90;;;;;;;;;;4943393;28;20039;-82
2022/03/01 05:17:38;;;;;;;26.20;11.30;;;;;;;;;;4949420;28;20484;-82
2022/03/01 05:20:05;;;;;;;30.65;11.88;;;;;;;;;;4941123;28;20059;-82
2022/03/01 05:22:32;;;;;;;26.23;11.13;;;;;;;;;;4960090;28;20472;-82
2022/03/01 05:24:58;;;;;;;27.60;12.20;;;;;;;;;;4958156;28;20589;-82
2022/03/01 05:27:24;;;;;;;22.02;10.50;;;;;;;;;;4957022;28;20166;-82
2022/03/01 05:29:50;;;;;;;24.48;11.07;;;;;;;;;;4944504;28;20074;-82
2022/03/01 05:32:17;;;;;;;29.27;11.05;;;;;;;;;;4945679;28;20558;-82
2022/03/01 05:34:44;;;;;;;25.67;11.50;;;;;;;;;;4944894;28;20036;-82
2022/03/01 05:37:10;;;;;;;27.23;12.35;;;;;;;;;;4942055;28;20037;-82
2022/03/01 05:39:37;;;;;;;24.92;10.93;;;;;;;;;;4946176;28;20019;-82
2022/03/01 05:42:10;;;;;;;25.40;12.23;;;;;;;;;;4943372;28;20031;-81
2022/03/01 05:44:36;;;;;;;29.88;11.68;;;;;;;;;;4963886;28;20171;-82
2022/03/01 05:47:02;;;;;;;27.13;13.20;;;;;;;;;;4947982;28;20642;-82
2022/03/01 05:49:28;;;;;;;25.20;11.68;;;;;;;;;;4947469;28;20042;-82
2022/03/01 05:51:54;;;;;;;26.23;11.77;;;;;;;;;;4960932;28;20035;-82
2022/03/01 05:54:27;;;;;;;25.80;11.85;;;;;;;;;;4946050;28;20690;-82
2022/03/01 05:56:53;;;;;;;28.33;12.05;;;;;;;;;;4960097;28;20032;-82
2022/03/01 05:59:19;;;;;;;23.30;10.82;;;;;;;;;;4948683;28;20031;-82
2022/03/01 06:01:45;;;;;;;28.35;12.32;;;;;;;;;;4948612;28;20038;-82
2022/03/01 06:04:11;;;;;;;26.10;11.55;;;;;;;;;;4957262;28;20373;-82
2022/03/01 06:06:37;;;;;;;26.63;12.13;;;;;;;;;;4944044;28;20036;-82
2022/03/01 06:09:03;;;;;;;26.83;11.15;;;;;;;;;;4944764;28;20437;-82
2022/03/01 06:11:30;;;;;;;24.58;10.52;;;;;;;;;;4947445;28;20031;-82
2022/03/01 06:13:56;;;;;;;30.23;12.05;;;;;;;;;;4949067;28;20079;-82
2022/03/01 06:16:22;;;;;;;25.17;10.95;;;;;;;;;;4948727;28;20067;-82
2022/03/01 06:18:48;;;;;;;20.88;11.05;;;;;;;;;;4950420;28;20054;-82
2022/03/01 06:21:14;;;;;;;30.35;11.68;;;;;;;;;;4945933;28;20556;-82
2022/03/01 06:23:40;;;;;;;29.58;12.40;;;;;;;;;;4963347;28;20110;-82
2022/03/01 06:26:07;;;;;;;30.40;13.43;;;;;;;;;;4940481;28;20123;-82
2022/03/01 06:28:33;;;;;;;26.08;10.98;;;;;;;;;;4959700;28;20063;-82
2022/03/01 06:31:00;;;;;;;32.97;11.75;;;;;;;;;;4945316;28;20509;-82
2022/03/01 06:33:26;;;;;;;26.83;12.10;;;;;;;;;;4946100;28;20107;-82
2022/03/01 06:35:52;;;;;;;43.60;12.20;;;;;;;;;;4943129;28;20098;-82
2022/03/01 06:38:18;;;;;;;33.33;12.25;;;;;;;;;;4954978;28;20042;-82
2022/03/01 06:40:44;;;;;;;27.35;11.10;;;;;;;;;;4947533;28;20114;-82
2022/03/01 06:43:10;;;;;;;21.35;10.75;;;;;;;;;;4946171;28;20035;-82
2022/03/01 06:45:37;;;;;;;29.90;13.27;;;;;;;;;;4957515;28;20031;-82
2022/03/01 06:48:03;;;;;;;28.48;12.05;;;;;;;;;;4958950;28;20046;-82
2022/03/01 06:50:29;;;;;;;27.33;10.80;;;;;;;;;;4945855;28;20019;-82
2022/03/01 06:52:55;;;;;;;30.95;13.00;;;;;;;;;;4944675;28;20637;-82
2022/03/01 06:55:23;;;;;;;30.10;11.52;;;;;;;;;;4948422;28;20113;-83
2022/03/01 06:57:49;;;;;;;27.55;12.63;;;;;;;;;;4959863;28;20062;-82
2022/03/01 07:00:15;;;;;;;29.98;11.90;;;;;;;;;;4946886;28;20028;-82
2022/03/01 07:02:42;;;;;;;25.75;12.10;;;;;;;;;;4947462;28;20039;-83
2022/03/01 07:05:09;;;;;;;27.33;13.05;;;;;;;;;;4954988;28;20473;-82
2022/03/01 07:07:36;;;;;;;27.55;12.27;;;;;;;;;;4956179;28;20062;-82
2022/03/01 07:10:03;;;;;;;23.27;10.90;;;;;;;;;;4944715;28;20035;-82
2022/03/01 07:12:29;;;;;;;26.05;11.93;;;;;;;;;;4945982;28;20043;-82
2022/03/01 07:14:55;;;;;;;29.77;13.10;;;;;;;;;;4957937;28;20031;-82
2022/03/01 07:17:21;;;;;;;30.52;14.48;;;;;;;;;;4949726;28;20022;-82
2022/03/01 07:19:49;;;;;;;28.65;12.43;;;;;;;;;;4942148;28;20518;-82
2022/03/01 07:22:15;;;;;;;30.30;14.02;;;;;;;;;;4942882;28;20059;-82
2022/03/01 07:24:41;;;;;;;27.95;13.15;;;;;;;;;;4945019;28;20023;-82
2022/03/01 07:27:07;;;;;;;31.83;12.90;;;;;;;;;;4958743;28;20036;-82
2022/03/01 07:29:33;;;;;;;29.15;12.20;;;;;;;;;;4943244;28;20035;-82
2022/03/01 07:32:00;;;;;;;30.30;13.18;;;;;;;;;;4942742;28;20042;-83
2022/03/01 07:34:26;;;;;;;27.27;13.45;;;;;;;;;;4941029;28;20123;-82
2022/03/01 07:36:52;;;;;;;25.08;11.63;;;;;;;;;;4947899;28;20059;-82
2022/03/01 07:39:18;;;;;;;29.45;12.40;;;;;;;;;;4948139;28;20027;-81
2022/03/01 07:41:44;;;;;;;25.25;11.48;;;;;;;;;;4945318;28;20059;-81
2022/03/01 07:44:11;;;;;;;25.02;12.05;;;;;;;;;;4951130;28;20057;-82
2022/03/01 07:46:37;;;;;;;34.08;12.77;;;;;;;;;;4943709;28;20580;-82
2022/03/01 07:49:04;;;;;;;31.75;13.48;;;;;;;;;;4945567;28;20030;-81
2022/03/01 07:51:30;;;;;;;30.15;12.82;;;;;;;;;;4944750;28;20508;-81
2022/03/01 07:53:56;;;;;;;25.70;13.38;;;;;;;;;;4958122;28;20576;-82
2022/03/01 07:56:22;;;;;;;39.70;14.38;;;;;;;;;;4955533;28;20063;-82
2022/03/01 07:58:48;;;;;;;31.48;12.25;;;;;;;;;;4943106;28;20063;-82
2022/03/01 08:01:15;;;;;;;36.20;14.73;;;;;;;;;;4947060;28;20027;-82
2022/03/01 08:03:41;;;;;;;23.45;12.55;;;;;;;;;;4947592;28;20034;-82
2022/03/01 08:06:07;;;;;;;28.92;13.05;;;;;;;;;;4944838;28;20057;-82
2022/03/01 08:08:35;;;;;;;30.55;12.80;;;;;;;;;;4942983;28;20035;-82
2022/03/01 08:11:02;;;;;;;29.70;12.75;;;;;;;;;;4957786;28;20035;-82
2022/03/01 08:13:29;;;;;;;28.30;13.05;;;;;;;;;;4943956;28;20050;-81
2022/03/01 08:15:55;;;;;;;28.40;13.05;;;;;;;;;;4955738;28;20173;-81
2022/03/01 08:18:21;;;;;;;24.73;12.20;;;;;;;;;;4945126;28;20449;-82
2022/03/01 08:20:50;;;;;;;29.63;12.73;;;;;;;;;;4940957;28;20034;-82
2022/03/01 08:23:16;;;;;;;27.15;12.60;;;;;;;;;;4941590;28;20421;-83
2022/03/01 08:25:43;;;;;;;27.55;12.40;;;;;;;;;;4941791;28;20448;-83
2022/03/01 08:28:09;;;;;;;31.38;12.40;;;;;;;;;;4958007;28;20071;-83
2022/03/01 08:30:35;;;;;;;30.90;13.77;;;;;;;;;;4943277;28;23203;-83
2022/03/01 08:33:02;;;;;;;30.45;12.60;;;;;;;;;;4948774;28;20480;-83
2022/03/01 08:35:28;;;;;;;26.05;12.35;;;;;;;;;;4958034;28;20435;-83
2022/03/01 08:37:56;;;;;;;27.85;12.50;;;;;;;;;;4941781;28;20039;-82
2022/03/01 08:40:23;;;;;;;29.42;12.77;;;;;;;;;;4948049;28;20023;-82
2022/03/01 08:42:49;;;;;;;26.38;12.18;;;;;;;;;;4944220;28;20031;-82
2022/03/01 08:45:16;;;;;;;24.63;11.73;;;;;;;;;;4959650;28;20034;-82
2022/03/01 08:47:42;;;;;;;27.08;12.35;;;;;;;;;;4941543;28;20027;-82
2022/03/01 08:50:08;;;;;;;24.17;12.18;;;;;;;;;;4944846;28;20094;-83
2022/03/01 08:52:35;;;;;;;30.70;11.73;;;;;;;;;;4944474;28;20511;-83
2022/03/01 08:55:04;;;;;;;26.05;12.75;;;;;;;;;;4949361;28;20026;-83
2022/03/01 08:57:30;;;;;;;23.30;10.20;;;;;;;;;;4942455;28;20039;-83
2022/03/01 08:59:56;;;;;;;29.30;12.93;;;;;;;;;;4952298;28;20035;-83
2022/03/01 09:02:22;;;;;;;30.00;11.30;;;;;;;;;;4943578;28;20127;-83
2022/03/01 09:04:48;;;;;;;28.40;11.80;;;;;;;;;;4954517;28;20606;-83
2022/03/01 09:07:14;;;;;;;31.02;11.90;;;;;;;;;;4957344;28;20042;-83
2022/03/01 09:09:41;;;;;;;29.02;11.88;;;;;;;;;;4949786;28;20043;-83
2022/03/01 09:12:07;;;;;;;27.42;10.82;;;;;;;;;;4959801;28;20486;-83
2022/03/01 09:14:33;;;;;;;30.27;12.50;;;;;;;;;;4956180;28;20035;-83
2022/03/01 09:16:59;;;;;;;28.13;12.30;;;;;;;;;;4945131;28;20063;-83
2022/03/01 09:19:25;;;;;;;28.50;11.38;;;;;;;;;;4938457;28;20118;-83
2022/03/01 09:21:52;;;;;;;26.00;12.75;;;;;;;;;;4943412;28;20118;-82
2022/03/01 09:24:18;;;;;;;27.58;12.00;;;;;;;;;;4943478;28;20023;-82
2022/03/01 09:26:44;;;;;;;30.98;12.80;;;;;;;;;;4944475;28;20042;-82
2022/03/01 09:29:10;;;;;;;23.35;10.80;;;;;;;;;;4945144;28;20074;-82
2022/03/01 09:31:36;;;;;;;26.83;11.15;;;;;;;;;;4957424;28;20057;-82
2022/03/01 09:34:02;;;;;;;31.63;11.40;;;;;;;;;;4945908;28;20054;-82
2022/03/01 09:36:29;;;;;;;28.92;12.35;;;;;;;;;;4946572;28;20683;-82
2022/03/01 09:38:55;;;;;;;30.45;11.57;;;;;;;;;;4961503;28;20043;-82
2022/03/01 09:41:21;;;;;;;24.45;12.25;;;;;;;;;;4945084;28;20054;-82
2022/03/01 09:43:47;;;;;;;25.00;11.25;;;;;;;;;;4943579;28;20072;-82
2022/03/01 09:46:13;;;;;;;27.50;11.95;;;;;;;;;;4942797;28;20055;-82
2022/03/01 09:48:39;;;;;;;30.63;11.30;;;;;;;;;;4945103;28;20062;-83
2022/03/01 09:51:06;;;;;;;25.73;11.18;;;;;;;;;;4944088;28;20393;-82
2022/03/01 09:53:32;;;;;;;25.25;12.10;;;;;;;;;;4956145;28;20032;-82
2022/03/01 09:56:00;;;;;;;26.25;11.63;;;;;;;;;;4942694;28;20142;-82
2022/03/01 09:58:26;;;;;;;32.90;11.43;;;;;;;;;;4941522;28;20637;-83
2022/03/01 10:00:53;;;;;;;26.10;12.73;;;;;;;;;;4945853;28;20038;-82
2022/03/01 10:03:20;;;;;;;25.00;10.65;;;;;;;;;;4941862;28;20855;-82
2022/03/01 10:05:46;;;;;;;22.92;11.13;;;;;;;;;;4957014;28;20031;-82
2022/03/01 10:08:15;;;;;;;28.08;12.50;;;;;;;;;;4938314;28;20050;-82
2022/03/01 10:10:44;;;;;;;20.58;11.00;;;;;;;;;;4946088;28;20027;-82
2022/03/01 10:13:13;;;;;;;26.77;10.82;;;;;;;;;;4941247;28;20651;-82
2022/03/01 10:15:39;;;;;;;24.05;10.80;;;;;;;;;;4942690;28;20028;-82
2022/03/01 10:18:10;;;;;;;24.05;12.05;;;;;;;;;;4946084;28;20070;-82
2022/03/01 10:20:39;;;;;;;26.90;12.30;;;;;;;;;;4940422;28;20027;-82
2022/03/01 10:23:05;;;;;;;20.50;11.32;;;;;;;;;;4944263;28;20030;-82
2022/03/01 10:25:31;;;;;;;23.25;12.20;;;;;;;;;;4940599;28;20026;-82
2022/03/01 10:27:57;;;;;;;21.80;11.18;;;;;;;;;;4943069;28;20086;-82
2022/03/01 10:30:29;;;;;;;22.40;11.15;;;;;;;;;;4944030;28;20035;-82
2022/03/01 10:33:06;;;;;;;23.65;11.95;;;;;;;;;;4964353;28;20356;-83
2022/03/01 10:35:32;;;;;;;24.75;11.90;;;;;;;;;;4957217;28;20591;-82
2022/03/01 10:38:01;;;;;;;22.15;12.88;;;;;;;;;;4939931;28;20547;-83
2022/03/01 10:40:27;;;;;;;22.10;11.93;;;;;;;;;;4946789;28;20027;-82
2022/03/01 10:43:02;;;;;;;23.38;12.48;;;;;;;;;;4945659;28;20388;-82
2022/03/01 10:45:36;;;;;;;28.80;13.52;;;;;;;;;;4961188;28;20038;-83
2022/03/01 10:48:03;;;;;;;24.30;11.43;;;;;;;;;;4960771;28;20031;-83
2022/03/01 10:50:30;;;;;;;23.10;11.43;;;;;;;;;;4942472;28;20043;-83
2022/03/01 10:52:56;;;;;;;25.42;12.30;;;;;;;;;;4943855;28;20482;-83
2022/03/01 10:55:26;;;;;;;24.08;12.15;;;;;;;;;;4962150;28;20062;-83
2022/03/01 10:57:59;;;;;;;23.90;12.10;;;;;;;;;;4945586;28;20082;-81
2022/03/01 11:00:26;;;;;;;22.40;11.63;;;;;;;;;;4965005;28;20041;-83
2022/03/01 11:02:52;;;;;;;23.85;11.38;;;;;;;;;;4946120;28;20127;-83
2022/03/01 11:05:18;;;;;;;26.33;12.90;;;;;;;;;;4946962;28;20487;-80
2022/03/01 11:07:44;;;;;;;23.33;11.68;;;;;;;;;;4944680;28;20043;-80
2022/03/01 11:10:12;;;;;;;25.42;11.68;;;;;;;;;;4953841;28;20503;-80
2022/03/01 11:12:40;;;;;;;27.27;11.27;;;;;;;;;;4944975;28;20495;-80
2022/03/01 11:15:09;;;;;;;26.27;13.93;;;;;;;;;;4946892;28;20035;-81
2022/03/01 11:17:35;;;;;;;24.88;12.32;;;;;;;;;;4957642;28;20467;-80
2022/03/01 11:20:16;;;;;;;28.00;12.75;;;;;;;;;;4942832;28;20033;-81
2022/03/01 11:22:46;;;;;;;25.92;12.40;;;;;;;;;;4959459;28;20024;-81
2022/03/01 11:25:19;;;;;;;29.75;12.38;;;;;;;;;;4956368;28;20122;-81
2022/03/01 11:27:53;;;;;;;25.20;13.13;;;;;;;;;;4940164;28;20031;-81
2022/03/01 11:30:34;;;;;;;27.17;13.40;;;;;;;;;;4960689;28;20504;-81
2022/03/01 11:33:00;;;;;;;22.17;12.35;;;;;;;;;;4941756;28;20404;-81
2022/03/01 11:35:29;;;;;;;22.33;12.77;;;;;;;;;;4926986;29;20036;-82
2022/03/01 11:38:15;;;;;;;27.52;13.23;;;;;;;;;;4926303;29;20365;-81
2022/03/01 11:40:42;;;;;;;23.30;11.40;;;;;;;;;;4944924;28;20027;-81
2022/03/01 11:43:12;;;;;;;27.67;12.82;;;;;;;;;;4931789;28;20878;-81
2022/03/01 11:45:39;;;;;;;24.85;12.00;;;;;;;;;;4933206;28;20062;-81
2022/03/01 11:48:06;;;;;;;28.33;13.35;;;;;;;;;;4940488;28;20031;-81
2022/03/01 11:50:32;;;;;;;28.75;13.13;;;;;;;;;;4925957;29;20117;-82
2022/03/01 11:53:08;;;;;;;25.73;13.20;;;;;;;;;;4940060;28;20480;-82
2022/03/01 11:55:42;;;;;;;28.70;12.57;;;;;;;;;;4938519;28;20036;-82
2022/03/01 11:58:09;;;;;;;25.60;11.30;;;;;;;;;;4939619;28;20035;-82
2022/03/01 12:00:36;;;;;;;25.95;13.38;;;;;;;;;;4927450;29;20020;-82
2022/03/01 12:03:03;;;;;;;27.70;13.18;;;;;;;;;;4927728;28;20039;-82
2022/03/01 12:05:29;;;;;;;28.02;13.48;;;;;;;;;;4927651;29;20039;-82
2022/03/01 12:07:55;;;;;;;30.30;13.30;;;;;;;;;;4919992;29;20054;-81
2022/03/01 12:10:22;;;;;;;28.70;13.52;;;;;;;;;;4923168;29;20453;-82
2022/03/01 12:12:50;;;;;;;30.33;12.57;;;;;;;;;;4927026;29;20047;-81
2022/03/01 12:15:26;;;;;;;28.25;13.02;;;;;;;;;;4938032;28;20531;-82
2022/03/01 12:17:52;;;;;;;30.92;13.63;;;;;;;;;;4927153;29;20032;-82
2022/03/01 12:20:19;;;;;;;30.17;12.57;;;;;;;;;;4920126;29;20031;-81
2022/03/01 12:22:51;;;;;;;29.65;13.77;;;;;;;;;;4935861;28;20024;-81
2022/03/01 12:25:17;;;;;;;28.20;13.50;;;;;;;;;;4923520;28;20119;-81
2022/03/01 12:27:43;;;;;;;27.50;13.50;;;;;;;;;;4932586;28;20059;-81
2022/03/01 12:30:10;;;;;;;28.17;13.15;;;;;;;;;;4939638;28;20035;-81
2022/03/01 12:32:36;;;;;;;29.58;14.45;;;;;;;;;;4940626;28;20059;-81
2022/03/01 12:35:03;;;;;;;24.65;13.13;;;;;;;;;;4952437;28;20740;-81
2022/03/01 12:37:30;;;;;;;26.17;12.57;;;;;;;;;;4940640;28;20038;-81
2022/03/01 12:39:56;;;;;;;32.25;13.05;;;;;;;;;;4942115;28;20027;-81
2022/03/01 12:42:27;;;;;;;34.75;14.50;;;;;;;;;;4945399;28;20047;-81
2022/03/01 12:44:53;;;;;;;29.80;14.23;;;;;;;;;;4958779;28;20028;-82
2022/03/01 12:47:19;;;;;;;29.02;14.07;;;;;;;;;;4944198;28;20090;-82
2022/03/01 12:49:45;;;;;;;32.10;14.50;;;;;;;;;;4947256;28;20039;-82
2022/03/01 12:52:17;;;;;;;31.30;14.15;;;;;;;;;;4955024;28;20027;-82
2022/03/01 12:54:44;;;;;;;33.20;14.23;;;;;;;;;;4947935;28;20039;-81
2022/03/01 12:57:13;;;;;;;27.90;14.07;;;;;;;;;;4960359;28;20491;-81
2022/03/01 12:59:39;;;;;;;31.13;14.15;;;;;;;;;;4950138;28;20503;-81
2022/03/01 13:02:07;;;;;;;29.35;14.82;;;;;;;;;;4942342;28;20031;-81
2022/03/01 13:04:34;;;;;;;25.40;13.43;;;;;;;;;;4937621;29;20102;-81
2022/03/01 13:07:01;;;;;;;34.50;14.68;;;;;;;;;;4942568;28;20463;-81
2022/03/01 13:09:27;;;;;;;35.03;14.63;;;;;;;;;;4940308;28;20118;-81
2022/03/01 13:11:53;;;;;;;30.83;15.23;;;;;;;;;;4945492;28;20042;-81
2022/03/01 13:14:21;;;;;;;30.17;14.95;;;;;;;;;;4946330;28;20031;-81
2022/03/01 13:16:52;;;;;;;31.02;13.98;;;;;;;;;;4940739;28;20058;-82
2022/03/01 13:19:19;;;;;;;29.52;14.65;;;;;;;;;;4941454;28;20027;-82
2022/03/01 13:21:45;;;;;;;25.63;14.40;;;;;;;;;;4940530;28;20110;-82
2022/03/01 13:24:12;;;;;;;31.90;14.07;;;;;;;;;;4946461;28;20027;-82
2022/03/01 13:26:38;;;;;;;29.05;14.55;;;;;;;;;;4957978;28;20597;-82
2022/03/01 13:29:18;;;;;;;37.03;16.55;;;;;;;;;;4942948;28;20466;-82
2022/03/01 13:31:45;;;;;;;29.73;15.32;;;;;;;;;;4936528;28;20672;-82
2022/03/01 13:34:11;;;;;;;29.70;15.48;;;;;;;;;;4943854;28;20028;-82
2022/03/01 13:36:39;;;;;;;29.70;14.65;;;;;;;;;;4941234;28;20440;-82
2022/03/01 13:39:13;;;;;;;40.42;16.85;;;;;;;;;;4944056;28;20106;-82
2022/03/01 13:41:52;;;;;;;32.22;14.10;;;;;;;;;;4945575;28;20126;-82
2022/03/01 13:44:28;;;;;;;42.42;15.90;;;;;;;;;;4955926;28;20035;-82
2022/03/01 13:46:57;;;;;;;27.42;15.05;;;;;;;;;;4940960;28;20032;-82
2022/03/01 13:49:31;;;;;;;30.88;14.55;;;;;;;;;;4954451;28;20412;-81
2022/03/01 13:52:11;;;;;;;34.50;16.98;;;;;;;;;;4944179;28;20516;-82
2022/03/01 13:54:38;;;;;;;34.97;16.38;;;;;;;;;;4955884;28;20027;-82
2022/03/01 13:57:06;;;;;;;30.70;14.52;;;;;;;;;;4940713;28;20550;-82
2022/03/01 13:59:32;;;;;;;38.38;15.73;;;;;;;;;;4941340;28;20110;-82
2022/03/01 14:01:58;;;;;;;29.38;15.85;;;;;;;;;;4941513;28;20043;-82
2022/03/01 14:04:25;;;;;;;29.05;14.27;;;;;;;;;;4943892;28;20433;-82
2022/03/01 14:06:52;;;;;;;33.70;15.57;;;;;;;;;;4944051;28;20031;-82
2022/03/01 14:09:18;;;;;;;29.55;15.48;;;;;;;;;;4944373;28;20098;-82
2022/03/01 14:11:57;;;;;;;32.53;14.95;;;;;;;;;;4946905;28;20667;-82
2022/03/01 14:14:24;;;;;;;27.63;14.43;;;;;;;;;;4958557;28;20101;-82